createdAt,value
2023-03-17T00:01:51.499Z,7.50
2023-03-17T00:04:19.560Z,6.80
2023-03-17T00:06:46.724Z,8.85
2023-03-17T00:09:15.707Z,7.13
2023-03-17T00:11:43.198Z,7.07
2023-03-17T00:14:10.249Z,8.02
2023-03-17T00:16:42.426Z,9.10
2023-03-17T00:19:17.256Z,6.90
2023-03-17T00:21:46.292Z,7.00
2023-03-17T00:24:15.239Z,7.80
2023-03-17T00:26:42.695Z,7.82
2023-03-17T00:29:09.956Z,7.72
2023-03-17T00:31:38.221Z,7.20
2023-03-17T00:34:05.948Z,8.05
2023-03-17T00:36:34.303Z,7.97
2023-03-17T00:39:01.609Z,7.28
2023-03-17T00:41:29.645Z,8.75
2023-03-17T00:43:57.548Z,7.65
2023-03-17T00:46:35.977Z,7.30
2023-03-17T00:49:10.881Z,7.03
2023-03-17T00:51:37.487Z,6.93
2023-03-17T00:54:04.515Z,7.65
2023-03-17T00:56:31.558Z,8.07
2023-03-17T00:58:58.200Z,7.22
2023-03-17T01:01:24.960Z,8.27
2023-03-17T01:03:51.578Z,6.95
2023-03-17T01:06:18.229Z,9.00
2023-03-17T01:08:45.568Z,7.60
2023-03-17T01:11:19.002Z,7.55
2023-03-17T01:13:46.778Z,7.20
2023-03-17T01:16:15.693Z,7.63
2023-03-17T01:18:43.601Z,8.60
2023-03-17T01:21:10.464Z,7.28
2023-03-17T01:23:37.469Z,8.15
2023-03-17T01:26:04.561Z,6.63
2023-03-17T01:28:31.694Z,6.78
2023-03-17T01:30:58.756Z,6.82
2023-03-17T01:33:26.101Z,7.03
2023-03-17T01:35:53.076Z,6.95
2023-03-17T01:38:19.936Z,6.05
2023-03-17T01:40:50.767Z,5.43
2023-03-17T01:43:21.685Z,5.47
2023-03-17T01:46:25.748Z,5.72
2023-03-17T01:48:55.521Z,5.63
2023-03-17T01:51:32.610Z,6.05
2023-03-17T01:54:03.670Z,5.25
2023-03-17T01:56:31.507Z,6.28
2023-03-17T01:59:01.715Z,6.10
2023-03-17T02:01:37.374Z,5.90
2023-03-17T02:04:05.059Z,6.43
2023-03-17T02:06:32.484Z,9.02
2023-03-17T02:09:00.324Z,5.68
2023-03-17T02:11:27.219Z,6.72
2023-03-17T02:13:54.021Z,6.45
2023-03-17T02:16:21.210Z,6.35
2023-03-17T02:18:48.243Z,6.65
2023-03-17T02:21:38.468Z,6.82
2023-03-17T02:24:21.923Z,5.95
2023-03-17T02:26:49.805Z,6.82
2023-03-17T02:29:16.967Z,6.38
2023-03-17T02:31:45.820Z,5.68
2023-03-17T02:34:12.563Z,6.38
2023-03-17T02:36:39.693Z,6.28
2023-03-17T02:39:06.531Z,6.80
2023-03-17T02:41:34.317Z,6.47
2023-03-17T02:44:01.489Z,7.35
2023-03-17T02:46:28.648Z,6.82
2023-03-17T02:48:56.391Z,6.82
2023-03-17T02:51:24.345Z,8.15
2023-03-17T02:53:51.100Z,7.88
2023-03-17T02:56:17.853Z,7.22
2023-03-17T02:58:44.726Z,7.35
2023-03-17T03:01:12.218Z,10.25
2023-03-17T03:03:38.999Z,6.50
2023-03-17T03:06:06.134Z,6.60
2023-03-17T03:08:33.553Z,7.05
2023-03-17T03:11:02.522Z,6.40
2023-03-17T03:13:29.746Z,6.53
2023-03-17T03:15:56.684Z,6.00
2023-03-17T03:18:23.605Z,6.10
2023-03-17T03:20:50.464Z,6.03
2023-03-17T03:23:17.023Z,5.80
2023-03-17T03:25:43.612Z,6.50
2023-03-17T03:28:10.510Z,7.13
2023-03-17T03:30:37.847Z,6.45
2023-03-17T03:33:04.865Z,6.88
2023-03-17T03:35:32.166Z,6.90
2023-03-17T03:38:00.446Z,7.00
2023-03-17T03:40:27.170Z,7.57
2023-03-17T03:42:54.725Z,7.53
2023-03-17T03:45:21.367Z,6.32
2023-03-17T03:47:47.923Z,6.18
2023-03-17T03:50:14.574Z,6.90
2023-03-17T03:52:41.483Z,6.75
2023-03-17T03:55:09.051Z,7.53
2023-03-17T03:57:36.081Z,6.72
2023-03-17T04:00:05.628Z,5.80
2023-03-17T04:02:32.368Z,6.53
2023-03-17T04:04:59.182Z,7.97
2023-03-17T04:07:26.292Z,7.40
2023-03-17T04:09:53.429Z,7.82
2023-03-17T04:12:20.333Z,8.48
2023-03-17T04:14:46.974Z,7.45
2023-03-17T04:17:14.831Z,5.85
2023-03-17T04:19:41.651Z,7.00
2023-03-17T04:22:10.317Z,7.20
2023-03-17T04:24:37.217Z,8.27
2023-03-17T04:27:06.059Z,11.15
2023-03-17T04:29:32.916Z,8.40
2023-03-17T04:31:59.772Z,8.18
2023-03-17T04:34:27.420Z,6.95
2023-03-17T04:36:54.726Z,7.43
2023-03-17T04:39:21.474Z,6.57
2023-03-17T04:41:48.143Z,6.40
2023-03-17T04:44:15.150Z,7.15
2023-03-17T04:46:42.168Z,5.88
2023-03-17T04:49:09.976Z,6.30
2023-03-17T04:51:37.329Z,7.43
2023-03-17T04:54:04.813Z,7.15
2023-03-17T04:56:32.152Z,7.40
2023-03-17T04:58:59.126Z,8.02
2023-03-17T05:01:26.800Z,7.35
2023-03-17T05:03:53.757Z,7.70
2023-03-17T05:06:20.448Z,6.07
2023-03-17T05:08:47.146Z,7.13
2023-03-17T05:11:14.879Z,6.40
2023-03-17T05:13:41.931Z,6.45
2023-03-17T05:16:09.808Z,7.05
2023-03-17T05:18:37.468Z,6.55
2023-03-17T05:21:05.801Z,7.18
2023-03-17T05:23:32.718Z,6.15
2023-03-17T05:25:59.666Z,6.47
2023-03-17T05:28:27.151Z,8.18
2023-03-17T05:30:54.903Z,7.03
2023-03-17T05:33:22.217Z,6.35
2023-03-17T05:35:48.913Z,6.18
2023-03-17T05:38:16.138Z,6.63
2023-03-17T05:40:43.625Z,6.13
2023-03-17T05:43:10.322Z,7.50
2023-03-17T05:45:37.742Z,7.10
2023-03-17T05:48:05.169Z,8.25
2023-03-17T05:50:32.607Z,8.77
2023-03-17T05:52:59.574Z,11.73
2023-03-17T05:55:26.990Z,7.65
2023-03-17T05:57:53.839Z,10.40
2023-03-17T06:00:21.776Z,15.57
2023-03-17T06:02:48.780Z,11.27
2023-03-17T06:05:15.666Z,9.38
2023-03-17T06:07:53.072Z,8.00
2023-03-17T06:10:22.265Z,7.90
2023-03-17T06:12:49.113Z,9.15
2023-03-17T06:15:17.194Z,6.78
2023-03-17T06:17:44.255Z,6.15
2023-03-17T06:20:11.862Z,7.32
2023-03-17T06:22:44.036Z,7.25
2023-03-17T06:25:15.690Z,8.15
2023-03-17T06:27:42.803Z,7.32
2023-03-17T06:30:10.446Z,7.30
2023-03-17T06:32:38.426Z,7.03
2023-03-17T06:35:05.895Z,5.53
2023-03-17T06:37:33.546Z,6.53
2023-03-17T06:40:01.298Z,7.10
2023-03-17T06:42:28.257Z,7.38
2023-03-17T06:44:56.354Z,6.47
2023-03-17T06:47:25.516Z,7.57
2023-03-17T06:49:53.530Z,8.32
2023-03-17T06:52:20.203Z,9.23
2023-03-17T06:54:47.025Z,11.40
2023-03-17T06:57:13.709Z,14.60
2023-03-17T06:59:40.565Z,14.95
2023-03-17T07:02:07.395Z,14.75
2023-03-17T07:04:37.608Z,14.18
2023-03-17T07:07:07.089Z,14.50
2023-03-17T07:09:34.573Z,10.73
2023-03-17T07:12:05.393Z,7.35
2023-03-17T07:14:34.369Z,7.30
2023-03-17T07:17:02.009Z,6.53
2023-03-17T07:19:28.822Z,4.72
2023-03-17T07:21:59.050Z,4.38
2023-03-17T07:24:26.279Z,4.53
2023-03-17T07:26:52.926Z,4.18
2023-03-17T07:29:21.341Z,5.07
2023-03-17T07:31:48.411Z,5.60
2023-03-17T07:34:16.667Z,4.53
2023-03-17T07:36:43.517Z,4.60
2023-03-17T07:39:12.123Z,3.20
2023-03-17T07:41:39.287Z,5.95
2023-03-17T07:44:06.003Z,3.38
2023-03-17T07:46:32.711Z,4.47
2023-03-17T07:48:59.725Z,4.45
2023-03-17T07:51:28.123Z,6.50
2023-03-17T07:54:03.425Z,8.50
2023-03-17T07:56:31.531Z,5.18
2023-03-17T07:58:59.862Z,6.07
2023-03-17T08:01:28.360Z,4.80
2023-03-17T08:03:56.663Z,2.95
2023-03-17T08:06:25.525Z,3.72
2023-03-17T08:08:53.123Z,3.63
2023-03-17T08:11:20.828Z,3.20
2023-03-17T08:13:48.264Z,4.07
2023-03-17T08:16:15.126Z,3.70
2023-03-17T08:18:41.873Z,4.47
2023-03-17T08:21:09.997Z,7.00
2023-03-17T08:23:36.867Z,3.80
2023-03-17T08:26:04.570Z,3.65
2023-03-17T08:28:32.736Z,3.42
2023-03-17T08:31:14.254Z,4.30
2023-03-17T08:33:42.477Z,2.53
2023-03-17T08:36:11.141Z,4.90
2023-03-17T08:38:38.968Z,6.38
2023-03-17T08:41:08.202Z,5.13
2023-03-17T08:43:36.687Z,1.42
2023-03-17T08:46:08.162Z,13.75
2023-03-17T08:48:36.667Z,8.45
2023-03-17T08:51:05.252Z,10.40
2023-03-17T08:53:35.219Z,23.40
2023-03-17T08:56:02.704Z,70.20
2023-03-17T08:58:29.451Z,48.30
2023-03-17T09:01:00.553Z,2.35
2023-03-17T09:03:27.997Z,2.20
2023-03-17T09:05:55.391Z,2.15
2023-03-17T09:08:22.792Z,14.07
2023-03-17T09:10:50.177Z,8.52
2023-03-17T09:13:17.846Z,24.50
2023-03-17T09:15:44.829Z,5.78
2023-03-17T09:18:12.676Z,10.13
2023-03-17T09:20:39.356Z,14.65
2023-03-17T09:23:08.200Z,15.80
2023-03-17T09:25:39.601Z,5.07
2023-03-17T09:28:07.457Z,3.13
2023-03-17T09:30:35.059Z,10.00
2023-03-17T09:33:01.789Z,5.53
2023-03-17T09:35:29.644Z,3.72
2023-03-17T09:37:56.276Z,7.22
2023-03-17T09:40:33.063Z,5.43
2023-03-17T09:43:06.245Z,7.38
2023-03-17T09:45:36.906Z,6.22
2023-03-17T09:48:12.044Z,3.72
2023-03-17T09:51:06.991Z,10.50
2023-03-17T09:53:40.533Z,6.45
2023-03-17T09:56:20.102Z,4.47
2023-03-17T09:59:04.737Z,6.03
2023-03-17T10:01:32.335Z,12.70
2023-03-17T10:03:59.062Z,2.60
2023-03-17T10:06:40.741Z,2.47
2023-03-17T10:09:27.212Z,3.35
2023-03-17T10:12:12.608Z,2.72
2023-03-17T10:14:54.625Z,4.28
2023-03-17T10:17:23.731Z,8.80
2023-03-17T10:20:00.752Z,9.93
2023-03-17T10:22:32.508Z,10.25
2023-03-17T10:25:05.373Z,4.18
2023-03-17T10:27:36.396Z,1.88
2023-03-17T10:30:04.372Z,4.10
2023-03-17T10:32:33.064Z,6.03
2023-03-17T10:34:59.733Z,9.30
2023-03-17T10:37:29.765Z,21.05
2023-03-17T10:39:57.903Z,23.00
2023-03-17T10:42:33.478Z,3.72
2023-03-17T10:45:26.037Z,2.25
2023-03-17T10:47:56.882Z,5.03
2023-03-17T10:50:28.770Z,1.77
2023-03-17T10:53:06.149Z,8.32
2023-03-17T10:55:38.937Z,9.07
2023-03-17T10:58:13.821Z,9.00
2023-03-17T11:00:57.843Z,9.00
2023-03-17T11:03:29.386Z,11.55
2023-03-17T11:06:00.531Z,4.05
2023-03-17T11:08:31.782Z,7.72
2023-03-17T11:10:58.488Z,11.15
2023-03-17T11:13:31.603Z,1.42
2023-03-17T11:16:04.486Z,2.30
2023-03-17T11:18:36.703Z,1.77
2023-03-17T11:21:10.991Z,5.40
2023-03-17T11:23:47.078Z,1.88
2023-03-17T11:26:45.499Z,6.43
2023-03-17T11:29:36.548Z,3.45
2023-03-17T11:32:41.567Z,0.80
2023-03-17T11:35:27.439Z,3.15
2023-03-17T11:38:22.212Z,8.43
2023-03-17T11:41:11.497Z,3.60
2023-03-17T11:44:00.162Z,0.60
2023-03-17T11:46:37.993Z,0.82
2023-03-17T11:49:10.621Z,2.33
2023-03-17T11:51:56.688Z,1.75
2023-03-17T11:54:29.864Z,3.03
2023-03-17T11:57:03.097Z,1.40
2023-03-17T11:59:55.918Z,2.53
2023-03-17T12:02:32.799Z,0.95
2023-03-17T12:05:11.109Z,2.78
2023-03-17T12:07:51.385Z,5.35
2023-03-17T12:10:45.783Z,2.35
2023-03-17T12:13:19.066Z,15.18
2023-03-17T12:15:53.194Z,1.45
2023-03-17T12:18:27.890Z,4.70
2023-03-17T12:21:02.137Z,1.23
2023-03-17T12:23:48.729Z,2.05
2023-03-17T12:26:20.725Z,0.40
2023-03-17T12:29:07.518Z,0.50
2023-03-17T12:31:45.393Z,2.92
2023-03-17T12:34:36.985Z,1.15
2023-03-17T12:37:03.853Z,2.38
2023-03-17T12:39:33.240Z,0.40
2023-03-17T12:42:11.729Z,2.92
2023-03-17T12:45:15.919Z,0.45
2023-03-17T12:47:50.138Z,1.20
2023-03-17T12:50:50.487Z,1.80
2023-03-17T12:53:32.741Z,0.55
2023-03-17T12:56:09.188Z,1.60
2023-03-17T12:58:39.158Z,0.82
2023-03-17T13:01:05.742Z,0.57
2023-03-17T13:03:33.750Z,0.40
2023-03-17T13:06:14.919Z,1.95
2023-03-17T13:08:42.352Z,0.55
2023-03-17T13:11:15.190Z,0.65
2023-03-17T13:13:55.306Z,0.70
2023-03-17T13:16:35.625Z,0.20
2023-03-17T13:19:16.196Z,0.10
2023-03-17T13:22:05.887Z,0.20
2023-03-17T13:24:42.486Z,0.20
2023-03-17T13:27:32.169Z,0.20
2023-03-17T13:30:00.486Z,0.20
2023-03-17T13:32:27.518Z,0.20
2023-03-17T13:35:16.133Z,0.20
2023-03-17T13:38:19.953Z,0.20
2023-03-17T13:41:01.666Z,0.75
2023-03-17T13:43:28.147Z,0.77
2023-03-17T13:45:56.135Z,0.50
2023-03-17T13:48:38.044Z,0.13
2023-03-17T13:51:24.219Z,2.25
2023-03-17T13:54:31.071Z,1.23
2023-03-17T13:57:18.756Z,0.30
2023-03-17T14:00:17.250Z,0.90
2023-03-17T14:02:45.312Z,0.20
2023-03-17T14:05:30.901Z,0.90
2023-03-17T14:08:11.869Z,0.20
2023-03-17T14:10:39.095Z,1.50
2023-03-17T14:13:21.819Z,0.13
2023-03-17T14:16:04.005Z,0.30
2023-03-17T14:18:34.490Z,0.30
2023-03-17T14:21:08.937Z,0.20
2023-03-17T14:23:37.397Z,0.30
2023-03-17T14:26:05.110Z,0.30
2023-03-17T14:28:34.961Z,0.20
2023-03-17T14:31:05.501Z,1.48
2023-03-17T14:33:40.147Z,0.70
2023-03-17T14:36:10.124Z,0.40
2023-03-17T14:38:46.438Z,0.38
2023-03-17T14:41:19.566Z,0.45
2023-03-17T14:43:47.123Z,0.52
2023-03-17T14:46:30.177Z,3.63
2023-03-17T14:49:14.455Z,0.30
2023-03-17T14:51:42.315Z,0.40
2023-03-17T14:54:22.290Z,0.45
2023-03-17T14:57:00.232Z,0.75
2023-03-17T14:59:36.837Z,1.05
2023-03-17T15:02:34.534Z,2.08
2023-03-17T15:05:38.180Z,1.20
2023-03-17T15:08:36.125Z,1.65
2023-03-17T15:11:05.947Z,1.23
2023-03-17T15:13:37.893Z,0.47
2023-03-17T15:16:15.452Z,0.32
2023-03-17T15:18:42.582Z,0.50
2023-03-17T15:21:32.714Z,0.40
2023-03-17T15:24:19.987Z,0.30
2023-03-17T15:26:46.861Z,0.45
2023-03-17T15:29:13.561Z,0.70
2023-03-17T15:31:40.178Z,0.50
2023-03-17T15:34:07.352Z,0.40
2023-03-17T15:36:36.118Z,0.30
2023-03-17T15:39:03.828Z,0.52
2023-03-17T15:41:30.578Z,1.30
2023-03-17T15:43:57.277Z,0.80
2023-03-17T15:46:27.908Z,0.90
2023-03-17T15:48:55.250Z,0.55
2023-03-17T15:51:22.548Z,0.85
2023-03-17T15:53:49.712Z,1.88
2023-03-17T15:56:19.398Z,2.05
2023-03-17T15:58:52.515Z,0.90
2023-03-17T16:01:19.967Z,0.88
2023-03-17T16:03:47.805Z,0.80
2023-03-17T16:06:18.304Z,2.30
2023-03-17T16:08:45.304Z,2.97
2023-03-17T16:11:18.768Z,0.68
2023-03-17T16:13:49.012Z,0.90
2023-03-17T16:16:21.628Z,1.80
2023-03-17T16:18:51.323Z,0.50
2023-03-17T16:21:19.217Z,2.78
2023-03-17T16:23:47.038Z,2.60
2023-03-17T16:26:16.572Z,2.22
2023-03-17T16:28:46.029Z,0.75
2023-03-17T16:31:19.685Z,0.60
2023-03-17T16:33:47.029Z,2.05
2023-03-17T16:36:16.688Z,3.58
2023-03-17T16:38:43.673Z,9.02
2023-03-17T16:41:24.143Z,2.92
2023-03-17T16:43:55.430Z,1.70
2023-03-17T16:46:23.122Z,0.93
2023-03-17T16:48:51.141Z,0.70
2023-03-17T16:51:18.060Z,1.20
2023-03-17T16:53:46.231Z,4.43
2023-03-17T16:56:16.893Z,3.25
2023-03-17T16:58:44.672Z,1.48
2023-03-17T17:01:15.434Z,0.70
2023-03-17T17:03:43.259Z,2.38
2023-03-17T17:06:11.392Z,1.83
2023-03-17T17:08:38.247Z,0.90
2023-03-17T17:11:04.909Z,3.22
2023-03-17T17:13:31.827Z,1.02
2023-03-17T17:15:59.838Z,2.78
2023-03-17T17:18:27.771Z,2.25
2023-03-17T17:20:55.063Z,1.23
2023-03-17T17:23:25.656Z,1.13
2023-03-17T17:25:53.594Z,1.42
2023-03-17T17:28:22.735Z,1.27
2023-03-17T17:30:51.014Z,10.93
2023-03-17T17:33:19.306Z,0.90
2023-03-17T17:35:47.516Z,1.83
2023-03-17T17:38:28.910Z,5.43
2023-03-17T17:40:58.263Z,3.45
2023-03-17T17:43:25.602Z,3.67
2023-03-17T17:45:53.265Z,2.63
2023-03-17T17:48:23.554Z,2.40
2023-03-17T17:50:52.126Z,1.38
2023-03-17T17:53:19.594Z,1.52
2023-03-17T17:55:48.389Z,1.25
2023-03-17T17:58:17.889Z,1.00
2023-03-17T18:00:44.874Z,2.50
2023-03-17T18:03:11.638Z,1.90
2023-03-17T18:05:39.036Z,0.85
2023-03-17T18:08:06.792Z,2.15
2023-03-17T18:10:34.650Z,3.33
2023-03-17T18:13:01.743Z,5.45
2023-03-17T18:15:28.689Z,2.88
2023-03-17T18:17:55.513Z,2.70
2023-03-17T18:20:23.358Z,4.93
2023-03-17T18:22:50.918Z,6.05
2023-03-17T18:25:19.162Z,6.63
2023-03-17T18:27:47.225Z,6.68
2023-03-17T18:30:21.970Z,7.85
2023-03-17T18:32:49.946Z,13.07
2023-03-17T18:35:19.815Z,5.07
2023-03-17T18:37:47.382Z,9.13
2023-03-17T18:40:18.629Z,7.38
2023-03-17T18:42:45.732Z,8.73
2023-03-17T18:45:13.076Z,5.18
2023-03-17T18:47:41.830Z,5.80
2023-03-17T18:50:11.697Z,6.40
2023-03-17T18:52:41.041Z,4.15
2023-03-17T18:55:09.754Z,6.10
2023-03-17T18:57:36.797Z,9.38
2023-03-17T19:00:05.198Z,7.40
2023-03-17T19:02:31.970Z,5.18
2023-03-17T19:05:01.777Z,4.32
2023-03-17T19:07:28.523Z,3.30
2023-03-17T19:09:55.898Z,4.80
2023-03-17T19:12:22.802Z,5.30
2023-03-17T19:14:49.813Z,9.63
2023-03-17T19:17:16.980Z,6.80
2023-03-17T19:19:44.166Z,7.00
2023-03-17T19:22:11.202Z,9.13
2023-03-17T19:24:38.156Z,9.73
2023-03-17T19:27:05.663Z,8.80
2023-03-17T19:29:33.522Z,13.10
2023-03-17T19:32:00.576Z,15.27
2023-03-17T19:34:27.451Z,15.07
2023-03-17T19:36:54.366Z,22.90
2023-03-17T19:39:22.025Z,22.23
2023-03-17T19:41:52.714Z,21.88
2023-03-17T19:44:19.500Z,27.13
2023-03-17T19:46:46.324Z,32.75
2023-03-17T19:49:13.079Z,37.83
2023-03-17T19:51:41.926Z,36.45
2023-03-17T19:54:09.958Z,38.83
2023-03-17T19:56:38.793Z,39.92
2023-03-17T19:59:06.814Z,43.28
2023-03-17T20:01:33.801Z,44.28
2023-03-17T20:04:01.219Z,41.50
2023-03-17T20:06:27.945Z,46.50
2023-03-17T20:08:54.515Z,48.72
2023-03-17T20:11:21.226Z,41.13
2023-03-17T20:13:47.818Z,49.45
2023-03-17T20:16:14.545Z,52.53
2023-03-17T20:18:41.346Z,52.50
2023-03-17T20:21:12.186Z,43.42
2023-03-17T20:23:38.952Z,47.28
2023-03-17T20:26:05.878Z,44.38
2023-03-17T20:28:32.663Z,43.20
2023-03-17T20:31:00.674Z,56.72
2023-03-17T20:33:27.834Z,83.72
2023-03-17T20:35:54.758Z,88.55
2023-03-17T20:38:21.631Z,94.72
2023-03-17T20:40:48.401Z,97.18
2023-03-17T20:43:15.254Z,91.97
2023-03-17T20:45:41.967Z,78.55
2023-03-17T20:48:10.771Z,84.25
2023-03-17T20:50:38.622Z,75.97
2023-03-17T20:53:05.556Z,62.40
2023-03-17T20:55:32.158Z,51.83
2023-03-17T20:57:59.900Z,54.80
2023-03-17T21:00:26.839Z,43.58
2023-03-17T21:02:53.954Z,47.75
2023-03-17T21:05:23.984Z,47.78
2023-03-17T21:07:50.867Z,38.65
2023-03-17T21:10:18.624Z,34.08
2023-03-17T21:12:45.800Z,31.23
2023-03-17T21:15:14.079Z,30.92
2023-03-17T21:17:42.438Z,30.40
2023-03-17T21:20:11.620Z,51.83
2023-03-17T21:22:40.034Z,49.33
2023-03-17T21:25:08.877Z,32.30
2023-03-17T21:27:39.802Z,33.08
2023-03-17T21:30:11.458Z,40.22
2023-03-17T21:32:39.048Z,45.50
2023-03-17T21:35:06.668Z,57.42
2023-03-17T21:37:33.745Z,51.63
2023-03-17T21:40:00.405Z,54.05
2023-03-17T21:42:27.850Z,56.15
2023-03-17T21:44:54.554Z,58.05
2023-03-17T21:47:21.212Z,54.63
2023-03-17T21:49:47.874Z,54.92
2023-03-17T21:52:15.330Z,59.78
2023-03-17T21:54:42.382Z,62.03
2023-03-17T21:57:09.442Z,78.93
2023-03-17T21:59:36.293Z,62.20
2023-03-17T22:02:03.045Z,66.43
2023-03-17T22:04:29.993Z,58.70
2023-03-17T22:06:58.921Z,59.22
2023-03-17T22:09:26.341Z,60.47
2023-03-17T22:11:53.128Z,69.82
2023-03-17T22:14:20.067Z,62.22
2023-03-17T22:16:48.407Z,58.85
2023-03-17T22:19:15.308Z,60.65
2023-03-17T22:21:42.441Z,66.38
2023-03-17T22:24:09.404Z,62.97
2023-03-17T22:26:36.286Z,58.90
2023-03-17T22:29:03.114Z,71.20
2023-03-17T22:31:30.200Z,64.38
2023-03-17T22:33:59.136Z,63.75
2023-03-17T22:36:26.813Z,60.55
2023-03-17T22:38:53.676Z,61.88
2023-03-17T22:41:23.103Z,58.22
2023-03-17T22:43:50.612Z,57.58
2023-03-17T22:46:18.209Z,49.88
2023-03-17T22:48:46.222Z,44.90
2023-03-17T22:51:19.678Z,53.55
2023-03-17T22:53:47.006Z,53.53
2023-03-17T22:56:16.525Z,53.10
2023-03-17T22:58:44.018Z,37.72
2023-03-17T23:01:13.473Z,34.35
2023-03-17T23:03:40.559Z,44.88
2023-03-17T23:06:08.682Z,41.78
2023-03-17T23:08:38.535Z,35.25
2023-03-17T23:11:09.357Z,33.65
2023-03-17T23:13:37.053Z,36.33
2023-03-17T23:16:04.743Z,36.85
2023-03-17T23:18:31.476Z,34.28
2023-03-17T23:20:59.628Z,39.40
2023-03-17T23:23:26.218Z,27.10
2023-03-17T23:25:52.868Z,36.13
2023-03-17T23:28:20.071Z,32.03
2023-03-17T23:30:47.395Z,36.60
2023-03-17T23:33:17.368Z,38.65
2023-03-17T23:35:44.724Z,32.80
2023-03-17T23:38:11.424Z,37.10
2023-03-17T23:40:38.091Z,27.50
2023-03-17T23:43:05.664Z,29.88
2023-03-17T23:45:33.960Z,32.47
2023-03-17T23:48:01.114Z,26.77
2023-03-17T23:50:27.974Z,29.02
2023-03-17T23:52:54.550Z,24.98
2023-03-17T23:55:21.227Z,24.00
2023-03-17T23:57:47.909Z,26.38
